Thunder radar more information blitzortung!


Radar de pluja more information rain snow radar


Visita la nostra xarxa de llocs de meteo:

Template documentation
and downloads

And another site



No particular awareness of the weather is required.    There are no Weather-warnings

Pagina Historial Weather Underground text

Diari Resum Novembre 15, 2017 Unitats:  Imperial    Mètric   Tant
« Previous Dia
SegĂźent Dia »
Diari Setmana Mensual Anual Personalitzada
  Maxima: Minima: Media:
Temperatura: TemperatureC °F 1.5 °F 8.2 °F
Punt de rosada: DewpointC °F -7.4 °F -3.1 °F
Humitat: Humidity % 32 % 45 %
Wind Speed: WindSpeedKMH mph 0.0 mph 2.2 mph
RĂ fegues de vent: WindSpeedGustKMH mph - -
Vent:- - SE
Pression baro: PressurehPa in 1016.8 in -
Precipitacions: 0.0 in    
Historical Graphs
 
 
Dades de taula per Novembre 15, 2017
Temps Temperatura Punt de rosada Pression baro Vent Wind Speed RĂ fegues de vent Humitat Rainfall Rate (Hourly)
TemperatureC °F DewpointC °F PressurehPa in Calm     Humidity % HourlyPrecipMM in
00:02 4.3 °F -6.9 °F 1019.9 in West 2.6 mph 2.6 mph 44 % 0.0 in
00:05 2.3 °F -7.1 °F 1019.9 in WNW 1.6 mph 3.2 mph 50 % 0.0 in
00:07 4.2 °F -7.0 °F 1019.9 in NW 2.3 mph 2.3 mph 44 % 0.0 in
00:12 4.3 °F -6.9 °F 1019.9 in WNW 2.3 mph 2.3 mph 44 % 0.0 in
00:15 2.2 °F -6.9 °F 1018.8 in Calm     51 % 0.0 in
00:17 4.3 °F -6.6 °F 1019.9 in Calm     45 % 0.0 in
00:22 4.2 °F -6.7 °F 1019.9 in Calm     45 % 0.0 in
00:25 2.0 °F -7.1 °F 1019.9 in WSW 1.6 mph 3.2 mph 51 % 0.0 in
00:27 4.2 °F -6.4 °F 1019.9 in Calm     46 % 0.0 in
00:32 4.2 °F -6.4 °F 1019.9 in NW 1.9 mph 1.9 mph 46 % 0.0 in
00:35 2.1 °F -7.0 °F 1019.9 in Calm   1.6 mph 51 % 0.0 in
00:37 4.1 °F -6.5 °F 1019.9 in Calm     46 % 0.0 in
00:42 4.0 °F -6.6 °F 1019.9 in WSW 1.9 mph 2.3 mph 46 % 0.0 in
00:45 2.0 °F -7.1 °F 1018.8 in WNW 1.6 mph 3.2 mph 51 % 0.0 in
00:47 3.9 °F -6.7 °F 1019.9 in WSW 1.9 mph   46 % 0.0 in
00:52 3.9 °F -6.4 °F 1019.9 in WSW 1.9 mph   47 % 0.0 in
00:55 1.8 °F -7.3 °F 1019.9 in Calm   1.6 mph 51 % 0.0 in
01:05 1.7 °F -7.4 °F 1019.9 in Calm   4.8 mph 51 % 0.0 in
01:15 1.6 °F -7.2 °F 1018.8 in Calm   6.4 mph 52 % 0.0 in
01:25 1.5 °F -7.3 °F 1019.9 in Calm   3.2 mph 52 % 0.0 in
01:35 1.5 °F -7.3 °F 1019.9 in North 1.6 mph 3.2 mph 52 % 0.0 in
01:45 1.7 °F -7.1 °F 1019.9 in North 1.6 mph 4.8 mph 52 % 0.0 in
01:55 1.8 °F -7.0 °F 1019.9 in NNE 1.6 mph 3.2 mph 52 % 0.0 in
02:05 2.2 °F -6.7 °F 1019.9 in North 3.2 mph 4.8 mph 52 % 0.0 in
02:15 2.5 °F -6.4 °F 1019.9 in WNW 1.6 mph 1.6 mph 52 % 0.0 in
02:25 3.1 °F -5.6 °F 1019.9 in Calm   1.6 mph 53 % 0.0 in
02:35 3.6 °F -5.3 °F 1019.9 in Calm   3.2 mph 52 % 0.0 in
02:45 3.6 °F -5.3 °F 1019.9 in West 1.6 mph 3.2 mph 52 % 0.0 in
02:55 3.9 °F -5.1 °F 1019.9 in Calm   4.8 mph 52 % 0.0 in
03:05 4.7 °F -4.3 °F 1019.9 in SW 1.6 mph 3.2 mph 52 % 0.0 in
03:15 5.5 °F -3.6 °F 1019.9 in SSW 1.6 mph 4.8 mph 52 % 0.0 in
03:25 5.6 °F -3.8 °F 1019.9 in NE 1.6 mph 3.2 mph 51 % 0.0 in
03:35 6.0 °F -3.4 °F 1019.9 in NE 1.6 mph 4.8 mph 51 % 0.0 in
03:45 6.2 °F -3.2 °F 1019.9 in NE 1.6 mph 6.4 mph 51 % 0.0 in
09:51 6.5 °F -2.9 °F 1019.9 in ENE 4.2 mph 4.2 mph 51 % 0.0 in
09:52 6.5 °F -2.9 °F 1019.9 in ENE 5.0 mph 5.0 mph 51 % 0.0 in
09:53 6.5 °F -2.9 °F 1019.9 in NE 7.4 mph 7.4 mph 51 % 0.0 in
09:58 6.4 °F -3.0 °F 1019.9 in WNW 5.3 mph 5.3 mph 51 % 0.0 in
10:03 6.7 °F -3.0 °F 1019.9 in NNE 6.1 mph 6.1 mph 50 % 0.0 in
10:04 6.8 °F -2.9 °F 1019.9 in NNE 5.6 mph 5.6 mph 50 % 0.0 in
10:09 7.0 °F -2.7 °F 1019.9 in NE 4.2 mph 4.2 mph 50 % 0.0 in
10:14 6.9 °F -2.8 °F 1019.9 in NNE 3.7 mph 3.7 mph 50 % 0.0 in
10:19 7.1 °F -2.6 °F 1019.9 in NNE 3.9 mph 3.9 mph 50 % 0.0 in
10:24 7.4 °F -2.3 °F 1019.9 in NNE 3.7 mph 3.9 mph 50 % 0.0 in
10:29 7.6 °F -2.2 °F 1019.9 in NE 5.6 mph 5.6 mph 50 % 0.0 in
10:34 7.9 °F -1.9 °F 1019.9 in ENE 3.5 mph   50 % 0.0 in
10:39 8.1 °F -1.7 °F 1019.9 in NE 3.7 mph 3.7 mph 50 % 0.0 in
10:44 8.5 °F -1.3 °F 1019.9 in NNE 3.9 mph 3.9 mph 50 % 0.0 in
10:47 8.4 °F -1.4 °F 1019.9 in WSW 3.9 mph 3.9 mph 50 % 0.0 in
10:52 8.5 °F -1.6 °F 1019.9 in NNE 5.6 mph 5.6 mph 49 % 0.0 in
10:57 8.4 °F -1.7 °F 1019.9 in ENE 5.6 mph 5.6 mph 49 % 0.0 in
11:02 8.3 °F -1.8 °F 1019.9 in NW 3.9 mph 3.9 mph 49 % 0.0 in
11:07 8.7 °F -1.4 °F 1019.9 in NNE 5.6 mph 5.6 mph 49 % 0.0 in
11:12 8.6 °F -1.8 °F 1019.9 in ENE 7.4 mph 7.4 mph 48 % 0.0 in
11:17 8.8 °F -1.3 °F 1019.9 in East 5.6 mph 5.6 mph 49 % 0.0 in
11:22 9.2 °F -1.0 °F 1018.8 in North 3.7 mph   49 % 0.0 in
11:27 9.3 °F -1.2 °F 1018.8 in NE 7.4 mph 7.4 mph 48 % 0.0 in
11:32 9.5 °F -1.0 °F 1018.8 in NE 5.8 mph 5.8 mph 48 % 0.0 in
11:35 12.8 °F -2.7 °F 1016.8 in South 1.6 mph 3.2 mph 34 % 0.0 in
11:37 9.6 °F -0.9 °F 1019.9 in ENE 3.9 mph 3.9 mph 48 % 0.0 in
11:42 9.7 °F -0.8 °F 1019.9 in ENE 5.6 mph 5.6 mph 48 % 0.0 in
11:45 12.5 °F -3.3 °F 1017.8 in Calm   3.2 mph 33 % 0.0 in
11:47 9.8 °F -0.7 °F 1019.9 in East 7.4 mph 7.4 mph 48 % 0.0 in
11:52 9.9 °F -0.9 °F 1018.8 in ESE 5.6 mph 5.6 mph 47 % 0.0 in
11:55 12.1 °F -3.3 °F 1017.8 in Calm   1.6 mph 34 % 0.0 in
11:57 10.1 °F -0.7 °F 1018.8 in NE 7.4 mph 7.4 mph 47 % 0.0 in
12:02 10.2 °F -0.6 °F 1018.8 in NNE 5.6 mph 5.6 mph 47 % 0.0 in
12:05 11.7 °F -3.7 °F 1017.8 in WSW 1.6 mph 1.6 mph 34 % 0.0 in
12:07 10.3 °F -0.6 °F 1019.9 in North 6.1 mph 6.1 mph 47 % 0.0 in
12:12 10.6 °F -0.3 °F 1019.9 in WNW 3.7 mph 3.7 mph 47 % 0.0 in
12:17 10.8 °F -0.4 °F 1019.9 in East 3.7 mph 3.7 mph 46 % 0.0 in
12:22 10.9 °F 0.0 °F 1018.8 in NNE 3.7 mph 3.7 mph 47 % 0.0 in
12:27 11.2 °F 0.0 °F 1018.8 in NNW 3.7 mph 3.7 mph 46 % 0.0 in
12:32 11.5 °F 0.3 °F 1018.8 in ENE 4.2 mph 4.2 mph 46 % 0.0 in
12:37 11.2 °F -0.3 °F 1018.8 in ESE 3.7 mph 3.7 mph 45 % 0.0 in
12:47 11.7 °F 0.4 °F 1018.8 in NE 5.6 mph 5.6 mph 46 % 0.0 in
12:52 11.7 °F 0.2 °F 1018.8 in SSE 4.2 mph 4.2 mph 45 % 0.0 in
12:57 12.0 °F 0.4 °F 1018.8 in NW 3.7 mph 3.7 mph 45 % 0.0 in
13:02 12.3 °F 0.7 °F 1018.8 in NNW 2.3 mph   45 % 0.0 in
13:07 12.2 °F 0.6 °F 1017.8 in ENE 4.2 mph 4.2 mph 45 % 0.0 in
13:12 12.3 °F 0.4 °F 1017.8 in NE 3.7 mph 3.7 mph 44 % 0.0 in
13:17 12.5 °F 0.6 °F 1017.8 in NNE 3.9 mph 3.9 mph 44 % 0.0 in
13:22 12.7 °F 0.7 °F 1017.8 in ENE 3.9 mph 3.9 mph 44 % 0.0 in
13:32 13.0 °F 1.0 °F 1017.8 in East 3.7 mph 3.7 mph 44 % 0.0 in
13:37 13.2 °F 1.2 °F 1017.8 in ENE 3.7 mph 3.7 mph 44 % 0.0 in
13:42 13.0 °F 0.7 °F 1017.8 in East 3.9 mph 3.9 mph 43 % 0.0 in
13:47 13.0 °F 0.7 °F 1017.8 in East 3.9 mph 3.9 mph 43 % 0.0 in
13:52 13.0 °F 0.7 °F 1017.8 in NE 3.9 mph 4.2 mph 43 % 0.0 in
13:57 13.2 °F 0.9 °F 1017.8 in ENE 3.7 mph 3.7 mph 43 % 0.0 in
14:02 13.3 °F 0.9 °F 1017.8 in NE 3.9 mph 3.9 mph 43 % 0.0 in
14:07 13.4 °F 0.7 °F 1017.8 in ENE 3.7 mph 3.7 mph 42 % 0.0 in
14:12 13.3 °F 0.3 °F 1017.8 in SE 5.8 mph 5.8 mph 41 % 0.0 in
14:17 13.5 °F 0.5 °F 1017.8 in East 5.6 mph 5.6 mph 41 % 0.0 in
14:22 13.5 °F 0.2 °F 1017.8 in ENE 5.6 mph 5.6 mph 40 % 0.0 in
14:27 13.5 °F 0.2 °F 1017.8 in ESE 3.7 mph 3.7 mph 40 % 0.0 in
14:32 13.7 °F 0.0 °F 1017.8 in ESE 5.6 mph 5.6 mph 39 % 0.0 in
14:37 13.8 °F 0.1 °F 1017.8 in NNE 1.9 mph   39 % 0.0 in
14:42 14.0 °F 0.2 °F 1017.8 in NNW 1.9 mph 1.9 mph 39 % 0.0 in
14:47 14.0 °F -0.5 °F 1017.8 in ESE 5.6 mph 5.6 mph 37 % 0.0 in
14:52 13.9 °F -0.9 °F 1016.8 in ESE 5.6 mph 5.6 mph 36 % 0.0 in
14:57 14.0 °F -0.8 °F 1016.8 in NNE 3.7 mph 3.7 mph 36 % 0.0 in
15:02 14.1 °F -0.8 °F 1016.8 in NNE 2.6 mph 2.6 mph 36 % 0.0 in
15:07 14.2 °F -0.7 °F 1016.8 in East 3.7 mph 3.7 mph 36 % 0.0 in
15:12 14.2 °F -0.7 °F 1016.8 in ENE 3.7 mph 3.7 mph 36 % 0.0 in
15:17 14.4 °F -0.5 °F 1016.8 in ENE 1.9 mph 1.9 mph 36 % 0.0 in
15:22 14.5 °F -0.4 °F 1016.8 in NNE 1.9 mph   36 % 0.0 in
15:27 14.4 °F -1.3 °F 1016.8 in South 5.6 mph 5.6 mph 34 % 0.0 in
15:32 14.4 °F -1.3 °F 1016.8 in ENE 4.2 mph 4.2 mph 34 % 0.0 in
15:37 14.4 °F -1.3 °F 1017.8 in East 5.6 mph 5.6 mph 34 % 0.0 in
15:42 14.5 °F -1.2 °F 1017.8 in NNE 1.9 mph 1.9 mph 34 % 0.0 in
15:47 14.6 °F -1.1 °F 1017.8 in ENE 3.7 mph   34 % 0.0 in
15:52 14.5 °F -1.6 °F 1016.8 in ENE 1.9 mph   33 % 0.0 in
15:57 14.5 °F -1.6 °F 1016.8 in ENE 3.7 mph 3.7 mph 33 % 0.0 in
16:02 14.4 °F -1.7 °F 1016.8 in East 3.7 mph 3.7 mph 33 % 0.0 in
16:07 14.5 °F -2.0 °F 1016.8 in East 1.9 mph 2.3 mph 32 % 0.0 in
16:12 14.5 °F -1.6 °F 1016.8 in ENE 3.7 mph 3.7 mph 33 % 0.0 in
16:17 14.5 °F -1.6 °F 1016.8 in East 3.7 mph 3.7 mph 33 % 0.0 in
16:22 14.6 °F -1.9 °F 1016.8 in South 3.7 mph 3.7 mph 32 % 0.0 in
16:27 14.6 °F -1.9 °F 1016.8 in SE 3.7 mph   32 % 0.0 in
16:32 14.4 °F -2.1 °F 1016.8 in East 5.6 mph 5.6 mph 32 % 0.0 in
16:37 14.4 °F -2.1 °F 1016.8 in Calm     32 % 0.0 in
16:42 14.3 °F -2.2 °F 1016.8 in ESE 3.7 mph 3.7 mph 32 % 0.0 in
16:47 14.3 °F -2.2 °F 1016.8 in East 3.7 mph 3.7 mph 32 % 0.0 in
16:52 14.1 °F -2.4 °F 1016.8 in East 3.7 mph 3.7 mph 32 % 0.0 in
16:57 14.0 °F -2.4 °F 1016.8 in ESE 3.7 mph 3.7 mph 32 % 0.0 in
17:02 13.9 °F -2.6 °F 1016.8 in ESE 1.9 mph   32 % 0.0 in
17:07 13.8 °F -2.2 °F 1016.8 in Calm     33 % 0.0 in
17:12 13.6 °F -2.4 °F 1016.8 in Calm     33 % 0.0 in
17:17 13.4 °F -2.6 °F 1016.8 in Calm     33 % 0.0 in
18:08 11.5 °F -3.8 °F 1017.8 in WSW 1.9 mph 1.9 mph 34 % 0.0 in
18:13 11.3 °F -4.0 °F 1017.8 in NNE 1.9 mph 1.9 mph 34 % 0.0 in
18:18 11.3 °F -4.0 °F 1017.8 in NNE 1.9 mph   34 % 0.0 in
18:23 11.1 °F -4.2 °F 1017.8 in NNE 3.7 mph 3.7 mph 34 % 0.0 in
18:25 5.0 °F -4.1 °F 1018.8 in ESE 1.6 mph 3.2 mph 52 % 0.0 in
18:28 11.0 °F -3.9 °F 1017.8 in Calm     35 % 0.0 in
18:33 10.9 °F -4.0 °F 1017.8 in NNE 1.9 mph 1.9 mph 35 % 0.0 in
18:35 4.9 °F -4.2 °F 1018.8 in Calm   1.6 mph 52 % 0.0 in
18:38 10.7 °F -4.2 °F 1017.8 in Calm     35 % 0.0 in
18:43 10.5 °F -4.3 °F 1017.8 in NNE 2.3 mph   35 % 0.0 in
18:45 4.7 °F -4.1 °F 1018.8 in Calm     53 % 0.0 in
18:48 10.5 °F -4.3 °F 1017.8 in NNE 2.3 mph 2.3 mph 35 % 0.0 in
18:53 10.4 °F -4.1 °F 1017.8 in NE 2.3 mph   36 % 0.0 in
18:55 4.6 °F -4.2 °F 1018.8 in Calm     53 % 0.0 in
18:58 10.2 °F -4.2 °F 1017.8 in NE 1.9 mph 1.9 mph 36 % 0.0 in
19:03 10.0 °F -4.1 °F 1017.8 in NNE 1.9 mph 1.9 mph 37 % 0.0 in
19:05 4.7 °F -4.1 °F 1018.8 in SW 1.6 mph 3.2 mph 53 % 0.0 in
19:08 9.9 °F -4.1 °F 1017.8 in North 1.9 mph   37 % 0.0 in
19:13 9.8 °F -4.2 °F 1017.8 in Calm     37 % 0.0 in
19:15 4.7 °F -3.8 °F 1018.8 in SW 1.6 mph 3.2 mph 54 % 0.0 in
19:18 9.7 °F -3.9 °F 1016.8 in Calm     38 % 0.0 in
19:19 9.7 °F -3.9 °F 1016.8 in Calm     38 % 0.0 in
19:24 9.7 °F -3.9 °F 1016.8 in Calm     38 % 0.0 in
19:25 4.8 °F -3.7 °F 1018.8 in Calm   3.2 mph 54 % 0.0 in
19:29 9.6 °F -4.1 °F 1016.8 in Calm     38 % 0.0 in
19:34 9.4 °F -4.2 °F 1016.8 in Calm     38 % 0.0 in
19:35 4.7 °F -3.8 °F 1018.8 in Calm     54 % 0.0 in
19:39 9.2 °F -4.1 °F 1016.8 in Calm     39 % 0.0 in
19:45 4.8 °F -3.7 °F 1018.8 in Calm     54 % 0.0 in
19:49 9.2 °F -3.7 °F 1017.8 in ENE 1.9 mph 1.9 mph 40 % 0.0 in
19:54 9.0 °F -3.9 °F 1017.8 in Calm     40 % 0.0 in
19:55 4.8 °F -3.5 °F 1018.8 in Calm     55 % 0.0 in
19:59 8.8 °F -4.1 °F 1017.8 in Calm     40 % 0.0 in
20:04 8.6 °F -3.9 °F 1017.8 in Calm     41 % 0.0 in
20:05 4.6 °F -3.7 °F 1018.8 in Calm   1.6 mph 55 % 0.0 in
20:09 8.5 °F -4.0 °F 1017.8 in Calm     41 % 0.0 in
20:14 8.5 °F -4.0 °F 1017.8 in Calm     41 % 0.0 in
20:15 4.6 °F -3.7 °F 1018.8 in Calm     55 % 0.0 in
20:19 8.3 °F -3.9 °F 1017.8 in Calm     42 % 0.0 in
20:25 4.5 °F -3.8 °F 1018.8 in Calm     55 % 0.0 in
20:29 7.9 °F -4.2 °F 1017.8 in West 1.9 mph 2.3 mph 42 % 0.0 in
20:34 7.8 °F -4.0 °F 1018.8 in Calm     43 % 0.0 in
20:35 4.5 °F -3.8 °F 1018.8 in Calm   3.2 mph 55 % 0.0 in
20:39 7.8 °F -4.0 °F 1018.8 in Calm     43 % 0.0 in
20:44 7.7 °F -4.1 °F 1018.8 in NE 3.7 mph 3.7 mph 43 % 0.0 in
20:45 4.4 °F -3.6 °F 1018.8 in Calm   1.6 mph 56 % 0.0 in
20:49 7.5 °F -4.3 °F 1017.8 in NNW 1.9 mph 1.9 mph 43 % 0.0 in
20:54 7.5 °F -4.3 °F 1017.8 in NNW 1.9 mph   43 % 0.0 in
20:55 4.6 °F -3.7 °F 1018.8 in Calm   3.2 mph 55 % 0.0 in
20:59 7.5 °F -4.0 °F 1017.8 in Calm     44 % 0.0 in
21:04 7.6 °F -3.9 °F 1017.8 in NE 1.9 mph 1.9 mph 44 % 0.0 in
21:05 4.6 °F -3.4 °F 1018.8 in Calm     56 % 0.0 in
21:09 7.5 °F -4.0 °F 1017.8 in Calm     44 % 0.0 in
21:14 7.3 °F -3.9 °F 1017.8 in NE 1.9 mph 2.3 mph 45 % 0.0 in
21:15 4.5 °F -3.6 °F 1018.8 in NNW 1.6 mph 1.6 mph 56 % 0.0 in
21:19 7.1 °F -4.1 °F 1018.8 in Calm     45 % 0.0 in
21:24 7.0 °F -4.2 °F 1018.8 in Calm     45 % 0.0 in
21:25 4.4 °F -3.6 °F 1018.8 in Calm     56 % 0.0 in
21:29 6.9 °F -4.2 °F 1018.8 in Calm     45 % 0.0 in
21:34 6.7 °F -4.1 °F 1018.8 in Calm     46 % 0.0 in
21:35 4.4 °F -3.6 °F 1018.8 in Calm     56 % 0.0 in
21:39 6.6 °F -4.2 °F 1018.8 in Calm     46 % 0.0 in
21:44 6.6 °F -4.2 °F 1018.8 in NNE 1.9 mph 1.9 mph 46 % 0.0 in
21:45 4.4 °F -3.6 °F 1018.8 in NNW 1.6 mph 3.2 mph 56 % 0.0 in
21:54 6.5 °F -4.0 °F 1018.8 in SE 2.3 mph   47 % 0.0 in
21:55 4.3 °F -3.7 °F 1018.8 in Calm   3.2 mph 56 % 0.0 in
21:59 6.5 °F -4.0 °F 1018.8 in Calm     47 % 0.0 in
22:04 6.4 °F -4.1 °F 1018.8 in SW 3.2 mph 3.2 mph 47 % 0.0 in
22:05 4.1 °F -3.7 °F 1018.8 in Calm   3.2 mph 57 % 0.0 in
22:09 6.2 °F -4.3 °F 1018.8 in SW 2.3 mph 2.3 mph 47 % 0.0 in
22:14 6.0 °F -4.5 °F 1018.8 in SW 3.7 mph 3.7 mph 47 % 0.0 in
22:15 4.1 °F -3.7 °F 1018.8 in NW 1.6 mph 3.2 mph 57 % 0.0 in
22:19 5.9 °F -4.6 °F 1018.8 in WSW 3.7 mph 3.7 mph 47 % 0.0 in
22:24 6.0 °F -4.2 °F 1018.8 in WSW 2.6 mph 2.6 mph 48 % 0.0 in
22:25 3.9 °F -3.8 °F 1018.8 in Calm   3.2 mph 57 % 0.0 in
22:29 6.0 °F -4.2 °F 1018.8 in WSW 3.7 mph 3.7 mph 48 % 0.0 in
22:34 6.0 °F -4.2 °F 1018.8 in WSW 3.7 mph 3.7 mph 48 % 0.0 in
22:35 3.6 °F -3.9 °F 1018.8 in Calm   1.6 mph 58 % 0.0 in
22:39 5.9 °F -4.0 °F 1018.8 in WSW 2.3 mph   49 % 0.0 in
22:44 5.8 °F -4.1 °F 1018.8 in WSW 1.9 mph 1.9 mph 49 % 0.0 in
22:45 3.6 °F -4.1 °F 1018.8 in Calm   3.2 mph 57 % 0.0 in
22:49 5.8 °F -4.1 °F 1018.8 in Calm     49 % 0.0 in
22:54 5.7 °F -3.9 °F 1018.8 in Calm     50 % 0.0 in
22:59 5.6 °F -4.0 °F 1018.8 in Calm     50 % 0.0 in
23:04 5.7 °F -3.9 °F 1018.8 in Calm     50 % 0.0 in
23:05 3.6 °F -3.9 °F 1018.8 in Calm   1.6 mph 58 % 0.0 in
23:09 5.6 °F -4.0 °F 1018.8 in Calm     50 % 0.0 in
23:14 5.6 °F -4.0 °F 1018.8 in Calm     50 % 0.0 in
23:15 3.6 °F -3.9 °F 1018.8 in Calm   1.6 mph 58 % 0.0 in
23:19 5.6 °F -4.0 °F 1018.8 in Calm     50 % 0.0 in
23:24 5.6 °F -3.8 °F 1018.8 in Calm     51 % 0.0 in
23:25 3.5 °F -3.8 °F 1018.8 in Calm     59 % 0.0 in
23:29 5.5 °F -3.8 °F 1018.8 in Calm     51 % 0.0 in
23:34 5.7 °F -3.7 °F 1018.8 in Calm     51 % 0.0 in
23:35 3.4 °F -3.9 °F 1018.8 in Calm     59 % 0.0 in
23:39 5.6 °F -3.8 °F 1018.8 in WSW 2.3 mph 2.3 mph 51 % 0.0 in
23:44 5.4 °F -3.7 °F 1018.8 in ENE 1.9 mph 1.9 mph 52 % 0.0 in
23:45 3.2 °F -4.1 °F 1018.8 in Calm     59 % 0.0 in
23:49 5.4 °F -3.7 °F 1018.8 in Calm     52 % 0.0 in
23:54 5.3 °F -3.8 °F 1018.8 in Calm     52 % 0.0 in
23:55 3.1 °F -4.2 °F 1018.8 in NW 1.6 mph 3.2 mph 59 % 0.0 in
23:59 5.3 °F -3.8 °F 1018.8 in ENE 3.7 mph 3.7 mph 52 % 0.0 in
Meteo Sesrovires
Elogis d' Weather Underground - 2 mb

Guio original per  Jim McMurry - jmcmurry@mwt.net Adaptat per a la plantilla per  Wim van der Kuil - Leuven-Template.eu

Trobareu la nostra informacio del temps tambe a:

Weather Underground

AWEKAS